Time;durP1;ratioP1;P1;durP2;ratioP2;P2;SDS_P1;SDS_P2;PMS_P1;PMS_P2;Temp;Humidity;BMP_temperature;BMP_pressure;BME280_temperature;BME280_humidity;BME280_pressure;Samples;Min_cycle;Max_cycle;Signal;HPM_P1;HPM_P2
2023/12/24 00:01:56;;;;;;;0.63;0.50;;;;;;;21.09;37.29;99571.38;4462278;28;20113;-48
2023/12/24 00:04:06;;;;;;;0.85;0.63;;;;;;;21.09;37.04;99571.38;4460030;28;21601;-48
2023/12/24 00:06:17;;;;;;;0.70;0.60;;;;;;;21.08;36.94;99569.75;4461141;28;20480;-48
2023/12/24 00:08:31;;;;;;;1.13;0.70;;;;;;;21.09;37.42;99562.78;4461085;28;20559;-50
2023/12/24 00:10:41;;;;;;;1.35;0.73;;;;;;;21.09;37.47;99551.31;4460110;28;20066;-48
2023/12/24 00:12:52;;;;;;;1.20;0.63;;;;;;;21.08;37.29;99554.56;4459877;28;20444;-49
2023/12/24 00:15:03;;;;;;;1.08;0.60;;;;;;;21.08;36.90;99541.06;4459818;28;20452;-48
2023/12/24 00:17:14;;;;;;;1.88;0.70;;;;;;;21.08;37.25;99545.97;4460457;28;20078;-49
2023/12/24 00:19:24;;;;;;;0.70;0.70;;;;;;;21.08;36.93;99546.78;4459539;28;20042;-48
2023/12/24 00:21:35;;;;;;;0.90;0.70;;;;;;;21.06;36.99;99532.00;4461252;28;20099;-48
2023/12/24 00:23:47;;;;;;;1.52;0.90;;;;;;;21.07;36.75;99542.28;4460684;28;20171;-48
2023/12/24 00:25:58;;;;;;;1.73;0.90;;;;;;;21.07;37.14;99542.28;4461150;28;20083;-50
2023/12/24 00:28:08;;;;;;;1.73;0.80;;;;;;;21.07;36.98;99533.69;4459181;28;20141;-48
2023/12/24 00:30:19;;;;;;;1.00;0.85;;;;;;;21.07;36.73;99545.16;4463340;28;20046;-49
2023/12/24 00:32:29;;;;;;;1.52;1.10;;;;;;;21.07;37.15;99536.53;4458608;28;20030;-47
2023/12/24 00:34:39;;;;;;;1.20;0.80;;;;;;;21.07;36.70;99545.16;4465133;28;20675;-48
2023/12/24 00:36:50;;;;;;;1.02;0.70;;;;;;;21.06;36.76;99537.75;4465074;28;20102;-48
2023/12/24 00:39:00;;;;;;;0.70;0.70;;;;;;;21.07;37.03;99550.06;4464248;28;20054;-49
2023/12/24 00:41:10;;;;;;;0.70;0.70;;;;;;;21.07;37.09;99556.63;4463843;28;20082;-50
2023/12/24 00:43:21;;;;;;;1.00;0.80;;;;;;;21.08;37.20;99566.03;4462346;28;20105;-49
2023/12/24 00:45:31;;;;;;;0.70;0.70;;;;;;;21.05;36.78;99559.06;4465052;28;20125;-48
2023/12/24 00:47:42;;;;;;;1.00;0.80;;;;;;;21.05;37.18;99553.31;4454496;28;20102;-49
2023/12/24 00:49:53;;;;;;;2.25;1.00;;;;;;;21.06;37.08;99548.41;4463302;28;20126;-49
2023/12/24 00:52:03;;;;;;;1.30;0.90;;;;;;;21.06;36.95;99543.47;4464256;28;20031;-51
2023/12/24 00:54:14;;;;;;;1.13;0.77;;;;;;;21.06;37.13;99551.28;4477737;28;20125;-48
2023/12/24 00:56:24;;;;;;;0.82;0.80;;;;;;;21.03;36.89;99555.75;4461690;28;20648;-48
2023/12/24 00:58:34;;;;;;;0.98;0.90;;;;;;;21.06;37.17;99552.09;4463316;28;20023;-49
2023/12/24 01:00:46;;;;;;;1.10;0.90;;;;;;;21.05;37.28;99553.31;4463926;28;20125;-51
2023/12/24 01:02:56;;;;;;;0.90;0.75;;;;;;;21.05;37.19;99555.34;4471278;28;20029;-48
2023/12/24 01:05:08;;;;;;;1.00;0.90;;;;;;;21.04;37.59;99551.66;4462688;28;20209;-48
2023/12/24 01:07:19;;;;;;;1.70;0.80;;;;;;;21.04;37.59;99557.41;4461393;28;20098;-49
2023/12/24 01:09:29;;;;;;;1.17;0.90;;;;;;;21.05;37.47;99556.19;4471173;28;20031;-49
2023/12/24 01:11:41;;;;;;;1.33;0.80;;;;;;;21.05;37.42;99558.22;4463002;28;20035;-48
2023/12/24 01:13:51;;;;;;;2.20;1.00;;;;;;;21.05;37.56;99549.63;4470513;28;20142;-50
2023/12/24 01:16:01;;;;;;;1.27;0.80;;;;;;;21.04;37.39;99557.41;4461216;28;20578;-48
2023/12/24 01:18:13;;;;;;;1.15;0.70;;;;;;;21.03;37.61;99555.75;4465752;28;20039;-49
2023/12/24 01:20:23;;;;;;;1.00;0.70;;;;;;;21.04;37.27;99563.13;4463690;28;20153;-48
2023/12/24 01:22:34;;;;;;;0.88;0.65;;;;;;;21.03;37.46;99567.22;4463331;28;20129;-49
2023/12/24 01:24:45;;;;;;;0.85;0.73;;;;;;;21.03;37.65;99570.09;4463246;28;20069;-49
2023/12/24 01:26:55;;;;;;;1.10;0.75;;;;;;;21.03;37.71;99572.97;4470257;28;20215;-48
2023/12/24 01:29:06;;;;;;;1.42;0.90;;;;;;;21.04;37.30;99574.59;4461343;28;20110;-49
2023/12/24 01:31:16;;;;;;;0.77;0.70;;;;;;;21.03;37.23;99566.41;4462678;28;20047;-49
2023/12/24 01:33:26;;;;;;;1.42;0.77;;;;;;;21.02;37.44;99562.72;4470653;28;20126;-49
2023/12/24 01:35:37;;;;;;;1.77;0.82;;;;;;;21.03;37.51;99566.41;4465323;28;20088;-48
2023/12/24 01:37:48;;;;;;;1.42;0.90;;;;;;;21.03;37.72;99566.41;4463536;28;20118;-49
2023/12/24 01:39:58;;;;;;;0.90;0.80;;;;;;;21.03;37.53;99567.22;4471002;28;20069;-48
2023/12/24 01:42:08;;;;;;;1.30;0.70;;;;;;;21.02;37.76;99571.34;4453889;28;20027;-48
2023/12/24 01:44:19;;;;;;;0.85;0.70;;;;;;;21.02;37.45;99574.19;4469566;28;20107;-48
2023/12/24 01:46:31;;;;;;;1.15;0.80;;;;;;;21.01;37.57;99569.66;4461914;28;20035;-49
2023/12/24 01:48:41;;;;;;;1.05;0.93;;;;;;;21.01;37.70;99563.94;4460849;28;20035;-49
2023/12/24 01:50:52;;;;;;;0.80;0.77;;;;;;;21.01;37.59;99557.38;4464377;28;20079;-49
2023/12/24 01:53:04;;;;;;;1.33;0.70;;;;;;;21.02;37.79;99559.03;4460134;28;20072;-48
2023/12/24 01:55:15;;;;;;;1.50;0.90;;;;;;;21.01;37.71;99557.38;4462637;28;20769;-48
2023/12/24 01:57:30;;;;;;;0.85;0.80;;;;;;;21.01;37.79;99551.66;4469879;28;21374;-49
2023/12/24 01:59:41;;;;;;;1.95;0.88;;;;;;;21.01;37.49;99563.13;4477003;28;20491;-48
2023/12/24 02:01:52;;;;;;;1.10;0.80;;;;;;;21.01;37.73;99575.41;4462077;28;20039;-49
2023/12/24 02:04:03;;;;;;;0.88;0.80;;;;;;;21.00;37.70;99572.94;4470177;28;20562;-48
2023/12/24 02:06:14;;;;;;;0.80;0.77;;;;;;;20.99;37.94;99554.91;4465893;28;20058;-49
2023/12/24 02:08:24;;;;;;;0.80;0.75;;;;;;;21.01;37.64;99569.66;4465854;28;20026;-48
2023/12/24 02:10:35;;;;;;;1.48;1.00;;;;;;;21.00;38.10;99562.28;4461187;28;20130;-49
2023/12/24 02:12:46;;;;;;;1.95;0.80;;;;;;;20.98;37.96;99550.38;4464362;28;20046;-48
2023/12/24 02:14:57;;;;;;;1.00;0.77;;;;;;;21.00;37.98;99553.69;4467582;28;20077;-48
2023/12/24 02:17:08;;;;;;;0.73;0.68;;;;;;;21.00;37.93;99555.72;4469377;28;20031;-48
2023/12/24 02:19:18;;;;;;;1.17;0.82;;;;;;;21.00;37.78;99545.06;4462347;28;20046;-49
2023/12/24 02:21:30;;;;;;;1.20;0.80;;;;;;;20.99;37.96;99537.69;4469447;28;20038;-49
2023/12/24 02:23:40;;;;;;;1.17;0.70;;;;;;;20.99;38.04;99543.44;4460995;28;20027;-48
2023/12/24 02:25:52;;;;;;;0.60;0.60;;;;;;;20.98;38.15;99536.03;4460339;28;20039;-49
2023/12/24 02:28:03;;;;;;;1.80;0.80;;;;;;;20.99;38.00;99526.22;4470509;28;20885;-48
2023/12/24 02:30:32;;;;;;;1.08;0.80;;;;;;;20.99;38.13;99534.81;4462678;28;20053;-50
2023/12/24 02:32:43;;;;;;;1.05;0.50;;;;;;;20.98;38.10;99523.75;4461208;28;21488;-49
2023/12/24 02:34:59;;;;;;;1.58;0.70;;;;;;;20.99;38.18;99531.97;4447516;28;20035;-49
2023/12/24 02:37:10;;;;;;;0.80;0.63;;;;;;;20.98;38.09;99512.28;4460909;28;20035;-48
2023/12/24 02:39:20;;;;;;;1.00;0.80;;;;;;;20.99;38.47;99513.91;4464964;28;20946;-49
2023/12/24 02:41:31;;;;;;;0.75;0.68;;;;;;;20.98;37.91;99507.34;4460036;28;20053;-49
2023/12/24 02:43:41;;;;;;;1.10;0.70;;;;;;;20.98;37.96;99513.06;4462013;28;20210;-49
2023/12/24 02:45:52;;;;;;;1.15;0.70;;;;;;;20.98;37.99;99518.81;4465807;28;20516;-49
2023/12/24 02:48:03;;;;;;;0.82;0.60;;;;;;;20.98;37.95;99518.81;4460793;28;20043;-50
2023/12/24 02:50:16;;;;;;;1.40;0.80;;;;;;;20.98;38.15;99518.00;4469107;28;20146;-49
2023/12/24 02:52:26;;;;;;;1.38;0.80;;;;;;;20.98;38.12;99510.22;4462320;28;20129;-49
2023/12/24 02:54:37;;;;;;;0.68;0.60;;;;;;;20.98;38.44;99509.41;4462848;28;20045;-48
2023/12/24 02:56:47;;;;;;;1.33;0.60;;;;;;;20.98;38.50;99510.22;4460390;28;20447;-49
2023/12/24 02:58:57;;;;;;;1.00;0.60;;;;;;;20.98;38.58;99507.34;4460452;28;20077;-48
2023/12/24 03:01:08;;;;;;;0.70;0.70;;;;;;;20.97;38.69;99511.44;4461952;28;20039;-49
2023/12/24 03:03:18;;;;;;;0.80;0.60;;;;;;;20.97;38.76;99499.97;4460347;28;20484;-48
2023/12/24 03:05:29;;;;;;;0.73;0.50;;;;;;;20.98;38.31;99495.88;4461249;28;20480;-48
2023/12/24 03:07:39;;;;;;;0.77;0.68;;;;;;;20.97;38.44;99494.22;4463132;28;20596;-49
2023/12/24 03:09:50;;;;;;;1.00;0.57;;;;;;;20.97;38.60;99488.50;4463481;28;20034;-50
2023/12/24 03:12:01;;;;;;;0.63;0.60;;;;;;;20.98;38.51;99495.06;4461836;28;20107;-48
2023/12/24 03:14:12;;;;;;;0.32;0.30;;;;;;;20.97;38.85;99488.50;4466864;28;20035;-49
2023/12/24 03:16:23;;;;;;;0.82;0.43;;;;;;;20.97;39.09;99487.66;4459903;28;20063;-49
2023/12/24 03:18:33;;;;;;;0.57;0.47;;;;;;;20.95;38.88;99482.28;4461045;28;20121;-48
2023/12/24 03:20:44;;;;;;;0.73;0.40;;;;;;;20.97;39.00;99494.22;4465507;28;20323;-48
2023/12/24 03:22:54;;;;;;;1.17;0.70;;;;;;;20.97;39.25;99491.38;4460468;28;20053;-50
2023/12/24 03:25:05;;;;;;;1.30;0.50;;;;;;;20.97;38.83;99485.63;4461431;28;21051;-49
2023/12/24 03:27:15;;;;;;;0.40;0.40;;;;;;;20.96;39.38;99469.66;4460839;28;20045;-48
2023/12/24 03:29:27;;;;;;;0.70;0.50;;;;;;;20.96;38.64;99474.53;4460456;28;20830;-48
2023/12/24 03:31:38;;;;;;;0.68;0.50;;;;;;;20.96;38.83;99469.66;4462256;28;20122;-48
2023/12/24 03:33:49;;;;;;;0.55;0.40;;;;;;;20.95;38.60;99456.47;4460193;28;20039;-49
2023/12/24 03:35:59;;;;;;;0.77;0.40;;;;;;;20.96;38.36;99452.44;4461728;28;20459;-50
2023/12/24 03:38:10;;;;;;;0.73;0.60;;;;;;;20.96;38.58;99445.84;4459348;28;20423;-49
2023/12/24 03:40:21;;;;;;;0.60;0.40;;;;;;;20.96;38.77;99452.44;4461861;28;20035;-49
2023/12/24 03:42:31;;;;;;;0.57;0.30;;;;;;;20.95;38.33;99445.00;4462160;28;20047;-49
2023/12/24 03:44:41;;;;;;;0.98;0.50;;;;;;;20.94;38.53;99449.09;4464849;28;20141;-48
2023/12/24 03:46:52;;;;;;;0.60;0.43;;;;;;;20.96;38.08;99451.56;4459513;28;20039;-48
2023/12/24 03:49:02;;;;;;;0.88;0.35;;;;;;;20.94;37.96;99454.84;4469854;28;20030;-49
2023/12/24 03:51:13;;;;;;;0.80;0.50;;;;;;;20.94;37.44;99454.84;4459736;28;20047;-49
2023/12/24 03:53:23;;;;;;;1.48;0.32;;;;;;;20.94;38.05;99459.75;4463060;28;20129;-49
2023/12/24 03:55:33;;;;;;;0.90;0.30;;;;;;;20.94;38.14;99460.56;4459964;28;20411;-49
2023/12/24 03:57:44;;;;;;;0.60;0.30;;;;;;;20.94;38.46;99466.31;4460895;28;20118;-48
2023/12/24 03:59:55;;;;;;;0.40;0.30;;;;;;;20.94;38.57;99472.06;4469487;28;20836;-49
2023/12/24 04:02:06;;;;;;;0.90;0.40;;;;;;;20.95;38.71;99473.69;4459412;28;20039;-49
2023/12/24 04:04:16;;;;;;;1.05;0.40;;;;;;;20.93;38.30;99458.91;4462902;28;20054;-49
2023/12/24 04:06:27;;;;;;;0.52;0.30;;;;;;;20.93;38.23;99458.91;4462165;28;20046;-49
2023/12/24 04:08:37;;;;;;;0.63;0.30;;;;;;;20.93;38.56;99458.09;4464920;28;20487;-49
2023/12/24 04:10:47;;;;;;;1.05;0.40;;;;;;;20.93;38.26;99458.91;4464356;28;20606;-48
2023/12/24 04:13:01;;;;;;;0.47;0.40;;;;;;;20.94;38.92;99462.59;4465374;28;20044;-49
2023/12/24 04:15:12;;;;;;;0.65;0.40;;;;;;;20.94;38.94;99462.59;4463193;28;20027;-48
2023/12/24 04:17:22;;;;;;;0.30;0.30;;;;;;;20.93;38.71;99464.66;4462815;28;20059;-50
2023/12/24 04:19:33;;;;;;;0.22;0.20;;;;;;;20.93;38.94;99450.31;4463345;28;20054;-49
2023/12/24 04:21:43;;;;;;;0.25;0.22;;;;;;;20.92;38.73;99454.41;4470545;28;20158;-49
2023/12/24 04:23:53;;;;;;;0.57;0.28;;;;;;;20.93;39.06;99461.78;4471156;28;20030;-48
2023/12/24 04:26:04;;;;;;;0.43;0.30;;;;;;;20.93;39.22;99458.91;4470173;28;20133;-49
2023/12/24 04:28:14;;;;;;;0.20;0.20;;;;;;;20.93;39.01;99463.84;4465295;28;20031;-49
2023/12/24 04:30:25;;;;;;;0.60;0.30;;;;;;;20.92;39.16;99448.66;4463073;28;20050;-48
2023/12/24 04:32:36;;;;;;;0.15;0.15;;;;;;;20.92;39.17;99451.53;4478395;28;20086;-48
2023/12/24 04:34:46;;;;;;;0.32;0.20;;;;;;;20.92;39.05;99460.13;4479196;28;20423;-48
2023/12/24 04:36:57;;;;;;;0.25;0.10;;;;;;;20.92;39.19;99445.78;4471336;28;20038;-48
2023/12/24 04:39:07;;;;;;;0.40;0.20;;;;;;;20.93;39.11;99444.56;4462753;28;24949;-49
2023/12/24 04:41:18;;;;;;;0.10;0.10;;;;;;;20.92;39.14;99448.66;4465670;28;20034;-49
2023/12/24 04:43:28;;;;;;;0.10;0.10;;;;;;;20.92;39.46;99434.31;4471595;28;20066;-49
2023/12/24 04:45:39;;;;;;;0.10;0.10;;;;;;;20.93;39.52;99432.28;4471486;28;20118;-48
2023/12/24 04:47:53;;;;;;;0.15;0.15;;;;;;;20.92;39.64;99431.47;4472548;28;20126;-49
2023/12/24 04:50:04;;;;;;;0.15;0.15;;;;;;;20.92;39.66;99428.59;4462926;28;20045;-49
2023/12/24 04:52:14;;;;;;;0.10;0.10;;;;;;;20.92;39.41;99427.75;4462659;28;20830;-48
2023/12/24 04:54:25;;;;;;;0.10;0.10;;;;;;;20.93;39.75;99417.94;4462714;28;20070;-48
2023/12/24 04:56:36;;;;;;;0.10;0.10;;;;;;;20.92;39.98;99419.16;4461219;28;20606;-48
2023/12/24 04:58:46;;;;;;;0.20;0.20;;;;;;;20.91;39.99;99412.63;4468752;28;20235;-48
2023/12/24 05:00:57;;;;;;;0.10;0.10;;;;;;;20.91;39.82;99409.75;4465766;28;20058;-48
2023/12/24 05:03:07;;;;;;;0.10;0.10;;;;;;;20.92;40.15;99404.81;4465300;28;20617;-48
2023/12/24 05:05:18;;;;;;;0.15;0.03;;;;;;;20.91;40.24;99397.44;4463434;28;20441;-49
2023/12/24 05:07:29;;;;;;;0.17;0.10;;;;;;;20.91;40.24;99398.28;4470477;28;20089;-49
2023/12/24 05:09:41;;;;;;;0.63;0.20;;;;;;;20.90;40.07;99398.66;4462328;28;20051;-51
2023/12/24 05:11:51;;;;;;;0.08;0.00;;;;;;;20.91;40.41;99398.28;4463970;28;20110;-49
2023/12/24 05:14:02;;;;;;;0.05;0.05;;;;;;;20.90;40.26;99393.72;4470805;28;20086;-49
2023/12/24 05:16:13;;;;;;;0.00;0.00;;;;;;;20.90;40.30;99393.72;4463078;28;20122;-48
2023/12/24 05:18:23;;;;;;;0.00;0.00;;;;;;;20.90;40.23;99387.19;4462587;28;20078;-48
2023/12/24 05:20:33;;;;;;;0.00;0.00;;;;;;;20.90;40.35;99388.00;4461505;28;20110;-48
2023/12/24 05:22:45;;;;;;;0.05;0.05;;;;;;;20.90;40.67;99385.13;4463862;28;20142;-48
2023/12/24 05:24:56;;;;;;;0.08;0.00;;;;;;;20.91;40.46;99392.53;4465644;28;20041;-48
2023/12/24 05:27:06;;;;;;;0.10;0.10;;;;;;;20.92;40.50;99399.06;4461253;28;20042;-51
2023/12/24 05:29:18;;;;;;;0.10;0.10;;;;;;;20.90;40.47;99388.00;4462681;28;20141;-49
2023/12/24 05:31:28;;;;;;;0.00;0.00;;;;;;;20.90;40.89;99385.13;4461995;28;20151;-48
2023/12/24 05:33:39;;;;;;;0.30;0.10;;;;;;;20.90;41.00;99387.19;4461235;28;20072;-49
2023/12/24 05:35:49;;;;;;;0.05;0.05;;;;;;;20.90;40.65;99387.19;4463903;28;20039;-49
2023/12/24 05:38:00;;;;;;;0.00;0.00;;;;;;;20.90;40.65;99385.13;4463168;28;30088;-48
2023/12/24 05:40:11;;;;;;;0.00;0.00;;;;;;;20.90;40.81;99375.72;4462447;28;20043;-49
2023/12/24 05:42:21;;;;;;;0.10;0.10;;;;;;;20.90;40.42;99375.72;4463227;28;20050;-48
2023/12/24 05:44:34;;;;;;;0.10;0.10;;;;;;;20.89;40.91;99360.56;4461065;28;20396;-48
2023/12/24 05:46:50;;;;;;;0.00;0.00;;;;;;;20.89;41.20;99360.56;4461061;28;20041;-49
2023/12/24 05:49:00;;;;;;;0.10;0.10;;;;;;;20.91;40.85;99363.00;4461197;28;20030;-48
2023/12/24 05:51:11;;;;;;;0.35;0.00;;;;;;;20.89;41.13;99363.41;4461091;28;20047;-50
2023/12/24 05:53:21;;;;;;;0.10;0.10;;;;;;;20.89;41.43;99353.97;4462182;28;20078;-49
2023/12/24 05:55:32;;;;;;;0.10;0.10;;;;;;;20.89;41.42;99372.03;4462930;28;28233;-48
2023/12/24 05:57:42;;;;;;;0.10;0.10;;;;;;;20.89;41.13;99369.16;4463423;28;20039;-49
2023/12/24 05:59:52;;;;;;;0.25;0.10;;;;;;;20.89;41.21;99359.72;4462446;28;21374;-49
2023/12/24 06:02:03;;;;;;;0.10;0.10;;;;;;;20.89;41.19;99348.25;4461395;28;20065;-49
2023/12/24 06:04:13;;;;;;;0.10;0.10;;;;;;;20.88;41.28;99350.31;4462040;28;20038;-48
2023/12/24 06:06:24;;;;;;;0.00;0.00;;;;;;;20.88;41.40;99358.91;4461726;28;20542;-48
2023/12/24 06:08:34;;;;;;;0.05;0.05;;;;;;;20.89;41.37;99346.22;4469735;28;20039;-48
2023/12/24 06:10:45;;;;;;;0.10;0.10;;;;;;;20.88;41.40;99347.44;4470304;28;20475;-48
2023/12/24 06:12:55;;;;;;;0.00;0.00;;;;;;;20.89;41.19;99354.81;4461535;28;20411;-49
2023/12/24 06:15:06;;;;;;;0.00;0.00;;;;;;;20.89;41.25;99349.06;4461865;28;20034;-50
2023/12/24 06:17:17;;;;;;;0.10;0.10;;;;;;;20.89;41.35;99346.22;4462372;28;20046;-50
2023/12/24 06:19:27;;;;;;;0.10;0.10;;;;;;;20.90;41.50;99344.16;4460785;28;20093;-50
2023/12/24 06:21:38;;;;;;;0.13;0.10;;;;;;;20.89;41.46;99342.50;4464039;28;24268;-49
2023/12/24 06:23:49;;;;;;;0.40;0.10;;;;;;;20.89;41.66;99345.38;4461232;28;20054;-49
2023/12/24 06:26:00;;;;;;;0.00;0.00;;;;;;;20.88;41.13;99347.44;4462138;28;20031;-48
2023/12/24 06:28:10;;;;;;;0.10;0.10;;;;;;;20.88;41.51;99344.56;4461269;28;20031;-49
2023/12/24 06:30:21;;;;;;;0.10;0.10;;;;;;;20.89;41.16;99342.50;4461377;28;22931;-48
2023/12/24 06:32:31;;;;;;;0.10;0.10;;;;;;;20.87;41.54;99340.03;4461425;28;20054;-49
2023/12/24 06:34:42;;;;;;;0.10;0.10;;;;;;;20.87;41.52;99345.78;4460594;28;20073;-48
2023/12/24 06:36:52;;;;;;;0.32;0.05;;;;;;;20.88;41.23;99347.44;4461638;28;20566;-49
2023/12/24 06:39:03;;;;;;;0.20;0.05;;;;;;;20.88;41.38;99344.56;4460222;28;20047;-48
2023/12/24 06:41:13;;;;;;;0.10;0.10;;;;;;;20.88;41.44;99341.72;4461366;28;20039;-48
2023/12/24 06:43:23;;;;;;;0.10;0.10;;;;;;;20.88;41.59;99338.00;4461195;28;20031;-50
2023/12/24 06:45:34;;;;;;;0.10;0.10;;;;;;;20.88;41.21;99347.44;4460349;28;20071;-48
2023/12/24 06:47:44;;;;;;;0.00;0.00;;;;;;;20.88;41.74;99340.88;4461683;28;20400;-48
2023/12/24 06:49:55;;;;;;;0.10;0.10;;;;;;;20.88;41.60;99347.44;4460626;28;20089;-50
2023/12/24 06:52:05;;;;;;;0.10;0.10;;;;;;;20.87;41.63;99340.03;4461210;28;20114;-49
2023/12/24 06:54:15;;;;;;;0.20;0.20;;;;;;;20.88;41.44;99340.88;4461723;28;20098;-49
2023/12/24 06:56:26;;;;;;;0.20;0.20;;;;;;;20.88;41.50;99341.72;4461374;28;23777;-48
2023/12/24 06:58:36;;;;;;;0.10;0.10;;;;;;;20.89;41.43;99348.25;4461238;28;20119;-52
2023/12/24 07:00:47;;;;;;;0.10;0.10;;;;;;;20.88;41.71;99353.19;4461531;28;20477;-48
2023/12/24 07:02:57;;;;;;;0.30;0.10;;;;;;;20.88;41.95;99347.44;4461732;28;20031;-48
2023/12/24 07:05:07;;;;;;;0.10;0.10;;;;;;;20.88;41.72;99346.63;4469640;28;20042;-50
2023/12/24 07:07:18;;;;;;;0.10;0.10;;;;;;;20.89;41.48;99331.03;4461463;28;20035;-49
2023/12/24 07:09:28;;;;;;;0.10;0.10;;;;;;;20.88;41.68;99338.00;4460753;28;20470;-49
2023/12/24 07:11:38;;;;;;;0.10;0.10;;;;;;;20.89;41.79;99337.59;4461784;28;21194;-49
2023/12/24 07:13:49;;;;;;;0.10;0.10;;;;;;;20.90;41.76;99332.69;4468527;28;20035;-48
2023/12/24 07:15:59;;;;;;;0.10;0.10;;;;;;;20.88;41.79;99335.97;4461396;28;20095;-49
2023/12/24 07:18:11;;;;;;;0.10;0.10;;;;;;;20.89;42.00;99337.59;4460929;28;20046;-49
2023/12/24 07:20:21;;;;;;;0.15;0.15;;;;;;;20.89;42.07;99331.88;4461223;28;20093;-50
2023/12/24 07:22:31;;;;;;;0.10;0.10;;;;;;;20.89;41.98;99333.91;4462442;28;20070;-49
2023/12/24 07:24:42;;;;;;;0.10;0.10;;;;;;;20.90;41.57;99332.69;4469277;28;20038;-48
2023/12/24 07:26:52;;;;;;;0.08;0.08;;;;;;;20.89;42.03;99331.03;4461098;28;20039;-51
2023/12/24 07:29:02;;;;;;;0.10;0.10;;;;;;;20.89;42.09;99325.31;4461516;28;22013;-49
2023/12/24 07:31:16;;;;;;;0.10;0.10;;;;;;;20.88;41.99;99333.09;4459854;28;20047;-49
2023/12/24 07:33:27;;;;;;;0.10;0.10;;;;;;;20.88;42.06;99326.53;4460836;28;20036;-48
2023/12/24 07:35:39;;;;;;;0.35;0.20;;;;;;;20.88;41.72;99333.09;4460952;28;20430;-48
2023/12/24 07:37:50;;;;;;;0.30;0.30;;;;;;;20.89;41.82;99337.59;4460848;28;20067;-49
2023/12/24 07:40:00;;;;;;;0.30;0.30;;;;;;;20.89;41.95;99333.91;4459113;28;20523;-48
2023/12/24 07:42:10;;;;;;;0.20;0.20;;;;;;;20.88;41.86;99335.97;4461083;28;20131;-48
2023/12/24 07:44:21;;;;;;;0.40;0.40;;;;;;;20.87;41.98;99328.56;4461999;28;20035;-48
2023/12/24 07:46:31;;;;;;;0.60;0.50;;;;;;;20.88;41.67;99333.09;4459805;28;23882;-49
2023/12/24 07:48:42;;;;;;;0.30;0.30;;;;;;;20.88;41.99;99321.63;4459314;28;20035;-48
2023/12/24 07:50:52;;;;;;;0.10;0.10;;;;;;;20.89;42.17;99329.00;4460425;28;20049;-48
2023/12/24 07:53:03;;;;;;;0.10;0.10;;;;;;;20.90;41.74;99324.09;4460867;28;20043;-49
2023/12/24 07:55:13;;;;;;;0.40;0.20;;;;;;;20.89;41.67;99331.88;4459718;28;20510;-48
2023/12/24 07:57:24;;;;;;;0.10;0.10;;;;;;;20.90;41.73;99324.09;4460287;28;20992;-53
2023/12/24 07:59:34;;;;;;;0.10;0.10;;;;;;;20.91;42.22;99328.59;4461483;28;20047;-52
2023/12/24 08:01:44;;;;;;;0.10;0.10;;;;;;;20.90;42.23;99324.09;4461064;28;20043;-48
2023/12/24 08:03:55;;;;;;;0.10;0.10;;;;;;;20.90;41.71;99332.69;4460336;28;20244;-52
2023/12/24 08:06:06;;;;;;;0.40;0.20;;;;;;;20.90;42.10;99339.25;4459978;28;20031;-48
2023/12/24 08:08:17;;;;;;;0.20;0.10;;;;;;;20.90;41.71;99336.38;4459562;28;20038;-48
2023/12/24 08:10:27;;;;;;;0.10;0.10;;;;;;;20.90;41.84;99338.44;4460259;28;20039;-49
2023/12/24 08:12:37;;;;;;;0.00;0.00;;;;;;;20.91;42.08;99346.63;4461053;28;20118;-49
2023/12/24 08:14:48;;;;;;;0.10;0.10;;;;;;;20.90;41.91;99339.25;4461653;28;20063;-48
2023/12/24 08:16:58;;;;;;;0.45;0.10;;;;;;;20.90;41.78;99336.38;4458907;28;20035;-49
2023/12/24 08:19:09;;;;;;;0.10;0.10;;;;;;;20.92;41.75;99338.84;4459434;28;20034;-50
2023/12/24 08:21:19;;;;;;;0.20;0.20;;;;;;;20.90;41.79;99333.50;4460045;28;20635;-48
2023/12/24 08:23:29;;;;;;;0.10;0.10;;;;;;;20.91;42.14;99337.19;4461597;28;20511;-48
2023/12/24 08:25:40;;;;;;;0.15;0.10;;;;;;;20.89;42.04;99325.31;4460627;28;20040;-49
2023/12/24 08:27:51;;;;;;;0.10;0.10;;;;;;;20.91;42.17;99334.34;4459692;28;20041;-48
2023/12/24 08:30:02;;;;;;;0.10;0.10;;;;;;;20.90;41.77;99339.25;4459777;28;20129;-48
2023/12/24 08:32:12;;;;;;;0.10;0.10;;;;;;;20.91;42.24;99328.59;4460368;28;20374;-48
2023/12/24 08:34:23;;;;;;;0.10;0.10;;;;;;;20.90;42.08;99327.75;4461724;28;20408;-49
2023/12/24 08:36:34;;;;;;;0.10;0.10;;;;;;;20.89;42.00;99326.13;4459413;28;20085;-49
2023/12/24 08:38:45;;;;;;;0.10;0.10;;;;;;;20.91;42.01;99328.59;4459821;28;21308;-48
2023/12/24 08:40:55;;;;;;;0.10;0.10;;;;;;;20.91;41.78;99323.69;4460823;28;23049;-49
2023/12/24 08:43:06;;;;;;;2.28;0.13;;;;;;;20.92;42.03;99331.06;4459613;28;20027;-48
2023/12/24 08:45:16;;;;;;;0.10;0.10;;;;;;;20.92;42.09;99325.31;4460284;28;20038;-49
2023/12/24 08:47:27;;;;;;;0.40;0.40;;;;;;;20.93;42.00;99321.22;4459529;28;20042;-48
2023/12/24 08:49:37;;;;;;;0.30;0.30;;;;;;;20.95;42.15;99327.41;4458697;28;20125;-48
2023/12/24 08:51:48;;;;;;;0.38;0.38;;;;;;;20.96;42.20;99322.50;4459792;28;20050;-49
2023/12/24 08:53:58;;;;;;;0.50;0.50;;;;;;;20.94;42.27;99317.16;4459755;28;20043;-49
2023/12/24 08:56:09;;;;;;;0.50;0.50;;;;;;;20.94;42.18;99305.69;4462557;28;20560;-48
2023/12/24 08:58:19;;;;;;;0.43;0.43;;;;;;;20.96;42.04;99316.75;4461588;28;20479;-48
2023/12/24 09:00:29;;;;;;;0.82;0.82;;;;;;;20.96;42.61;99326.22;4462379;28;20480;-48
2023/12/24 09:02:40;;;;;;;0.30;0.30;;;;;;;20.97;42.38;99327.03;4466759;28;20507;-48
2023/12/24 09:04:50;;;;;;;0.20;0.20;;;;;;;20.98;42.34;99322.94;4469596;28;20522;-49
2023/12/24 09:07:01;;;;;;;0.10;0.10;;;;;;;20.99;42.48;99327.44;4462580;28;20023;-49
2023/12/24 09:09:12;;;;;;;0.10;0.10;;;;;;;20.98;42.10;99323.75;4462563;28;20078;-48
2023/12/24 09:11:22;;;;;;;0.20;0.20;;;;;;;20.98;42.17;99320.88;4464008;28;20027;-48
2023/12/24 09:13:33;;;;;;;0.20;0.20;;;;;;;20.98;42.68;99323.75;4463201;28;20035;-49
2023/12/24 09:15:43;;;;;;;0.20;0.20;;;;;;;20.98;42.35;99323.75;4461420;28;20039;-48
2023/12/24 09:17:54;;;;;;;0.17;0.17;;;;;;;20.98;42.63;99318.00;4462082;28;20046;-49
2023/12/24 09:20:05;;;;;;;0.20;0.20;;;;;;;20.97;42.42;99327.84;4463273;28;20039;-48
2023/12/24 09:22:15;;;;;;;0.20;0.20;;;;;;;20.98;42.59;99323.75;4462425;28;20039;-48
2023/12/24 09:24:26;;;;;;;0.13;0.13;;;;;;;20.97;42.50;99310.66;4462999;28;20034;-48
2023/12/24 09:26:36;;;;;;;0.30;0.30;;;;;;;20.98;42.69;99328.69;4462248;28;20034;-49
2023/12/24 09:28:47;;;;;;;0.38;0.30;;;;;;;20.98;42.50;99320.09;4461423;28;20411;-49
2023/12/24 09:30:57;;;;;;;0.30;0.30;;;;;;;20.98;42.60;99314.34;4462669;28;20094;-48
2023/12/24 09:33:07;;;;;;;0.30;0.30;;;;;;;20.97;42.69;99318.41;4462904;28;20446;-48
2023/12/24 09:35:18;;;;;;;0.30;0.30;;;;;;;20.97;42.54;99318.41;4462379;28;20045;-48
2023/12/24 09:37:28;;;;;;;0.20;0.20;;;;;;;20.98;42.63;99329.50;4463659;28;20041;-48
2023/12/24 09:39:39;;;;;;;0.20;0.20;;;;;;;20.98;42.57;99323.75;4464057;28;20484;-52
2023/12/24 09:41:49;;;;;;;0.20;0.20;;;;;;;20.97;42.68;99327.84;4461864;28;20480;-48
2023/12/24 09:44:01;;;;;;;0.30;0.30;;;;;;;20.99;42.47;99342.63;4477218;28;20050;-48
2023/12/24 09:46:11;;;;;;;0.20;0.20;;;;;;;20.97;42.24;99330.72;4462257;28;20030;-49
2023/12/24 09:48:21;;;;;;;0.30;0.30;;;;;;;20.98;42.72;99340.97;4461793;28;20488;-48
2023/12/24 09:50:32;;;;;;;0.38;0.38;;;;;;;20.98;42.67;99337.28;4461591;28;20074;-49
2023/12/24 09:52:45;;;;;;;1.02;0.63;;;;;;;20.99;42.60;99351.22;4461981;28;20666;-48
2023/12/24 09:54:55;;;;;;;1.08;0.60;;;;;;;20.97;42.68;99350.81;4462255;28;20023;-48
2023/12/24 09:57:07;;;;;;;0.30;0.28;;;;;;;20.98;42.79;99346.69;4462755;28;20039;-48
2023/12/24 09:59:17;;;;;;;0.50;0.30;;;;;;;20.99;42.36;99336.91;4466726;28;20045;-49
2023/12/24 10:01:27;;;;;;;0.30;0.30;;;;;;;20.99;42.64;99338.94;4462753;28;20045;-48
2023/12/24 10:03:38;;;;;;;0.75;0.40;;;;;;;20.98;42.24;99329.50;4461344;28;20029;-50
2023/12/24 10:06:02;;;;;;;0.60;0.60;;;;;;;20.98;42.92;99329.50;4461767;28;20054;-48
2023/12/24 10:08:18;;;;;;;0.30;0.30;;;;;;;20.99;42.43;99330.31;4461669;28;20035;-48
2023/12/24 10:10:32;;;;;;;0.20;0.20;;;;;;;20.98;42.68;99332.34;4462181;28;20049;-53
2023/12/24 10:12:43;;;;;;;0.15;0.15;;;;;;;20.99;42.60;99330.31;4462072;28;20552;-48
2023/12/24 10:14:58;;;;;;;0.30;0.30;;;;;;;21.00;42.58;99329.09;4460427;28;20082;-49
2023/12/24 10:17:08;;;;;;;0.30;0.30;;;;;;;21.01;42.51;99325.03;4461027;28;20033;-49